Time;durP1;ratioP1;P1;durP2;ratioP2;P2;SDS_P1;SDS_P2;PMS_P1;PMS_P2;Temp;Humidity;BMP_temperature;BMP_pressure;BME280_temperature;BME280_humidity;BME280_pressure;Samples;Min_cycle;Max_cycle;Signal;HPM_P1;HPM_P2
2022/07/24 00:01:56;;;;;;;;;;;;;;;22.53;47.70;99197.19;2623130;54;19941;-66
2022/07/24 00:04:26;;;;;;;;;;;;;;;22.53;47.81;99196.38;2622198;54;19994;-67
2022/07/24 00:07:00;;;;;;;;;;;;;;;22.21;48.11;99202.69;2622134;54;19945;-66
2022/07/24 00:09:30;;;;;;;;;;;;;;;22.06;48.97;99195.25;2621322;47;19947;-67
2022/07/24 00:12:02;;;;;;;;;;;;;;;22.05;49.05;99193.66;2621952;54;19946;-67
2022/07/24 00:14:32;;;;;;;;;;;;;;;22.03;48.97;99198.47;2622108;54;19946;-66
2022/07/24 00:17:01;;;;;;;;;;;;;;;22.08;49.57;99200.38;2621893;54;19954;-67
2022/07/24 00:19:31;;;;;;;;;;;;;;;22.17;49.29;99199.69;2620083;47;19939;-66
2022/07/24 00:22:02;;;;;;;;;;;;;;;22.15;49.11;99199.13;2620208;54;19938;-66
2022/07/24 00:24:32;;;;;;;;;;;;;;;21.99;49.22;99200.84;2619676;54;19953;-67
2022/07/24 00:27:04;;;;;;;;;;;;;;;21.83;50.06;99201.00;2619576;54;19970;-67
2022/07/24 00:29:34;;;;;;;;;;;;;;;21.85;49.78;99199.69;2619204;54;19947;-66
2022/07/24 00:32:04;;;;;;;;;;;;;;;21.87;49.58;99194.03;2620668;54;19946;-69
2022/07/24 00:34:33;;;;;;;;;;;;;;;21.88;49.52;99201.03;2621497;54;19941;-70
2022/07/24 00:37:03;;;;;;;;;;;;;;;21.78;50.09;99199.06;2620633;54;20438;-66
2022/07/24 00:39:32;;;;;;;;;;;;;;;21.75;50.02;99200.38;2618919;54;19973;-66
2022/07/24 00:42:01;;;;;;;;;;;;;;;21.65;50.10;99197.63;2619556;47;19965;-66
2022/07/24 00:44:33;;;;;;;;;;;;;;;21.45;50.87;99200.91;2619882;54;19946;-66
2022/07/24 00:47:03;;;;;;;;;;;;;;;21.31;50.82;99198.84;2619758;54;19947;-66
2022/07/24 00:49:32;;;;;;;;;;;;;;;21.33;51.19;99194.88;2619850;54;19954;-66
2022/07/24 00:52:02;;;;;;;;;;;;;;;21.36;51.41;99191.69;2619835;54;19939;-66
2022/07/24 00:54:32;;;;;;;;;;;;;;;21.23;51.59;99198.25;2619025;54;19938;-67
2022/07/24 00:57:01;;;;;;;;;;;;;;;21.23;51.74;99195.56;2619779;54;19954;-67
2022/07/24 00:59:33;;;;;;;;;;;;;;;21.34;51.55;99193.81;2619472;54;19947;-67
2022/07/24 01:02:03;;;;;;;;;;;;;;;21.42;51.58;99193.34;2619504;47;19943;-67
2022/07/24 01:04:32;;;;;;;;;;;;;;;21.41;51.24;99191.75;2619615;54;19941;-65
2022/07/24 01:07:02;;;;;;;;;;;;;;;21.37;51.23;99201.38;2618513;54;19938;-65
2022/07/24 01:09:32;;;;;;;;;;;;;;;21.33;51.57;99202.13;2618792;54;19954;-66
2022/07/24 01:12:01;;;;;;;;;;;;;;;21.25;51.22;99196.09;2619108;54;19946;-66
2022/07/24 01:14:34;;;;;;;;;;;;;;;21.28;51.46;99195.63;2618756;54;19969;-66
2022/07/24 01:17:04;;;;;;;;;;;;;;;21.33;51.34;99200.25;2618736;54;19943;-65
2022/07/24 01:19:34;;;;;;;;;;;;;;;21.29;51.51;99201.78;2618144;54;19946;-65
2022/07/24 01:22:06;;;;;;;;;;;;;;;21.22;51.90;99193.09;2618500;47;19946;-67
2022/07/24 01:24:36;;;;;;;;;;;;;;;21.19;51.79;99197.13;2618626;54;19978;-68
2022/07/24 01:27:06;;;;;;;;;;;;;;;21.12;52.10;99204.56;2620085;39;20353;-67
2022/07/24 01:29:35;;;;;;;;;;;;;;;21.00;51.78;99199.31;2619465;54;19969;-67
2022/07/24 01:32:04;;;;;;;;;;;;;;;20.94;52.38;99202.19;2620118;54;19934;-67
2022/07/24 01:34:34;;;;;;;;;;;;;;;20.87;52.50;99204.28;2619619;39;20319;-67
2022/07/24 01:37:06;;;;;;;;;;;;;;;20.79;52.36;99202.84;2621289;39;20333;-69
2022/07/24 01:39:35;;;;;;;;;;;;;;;20.65;53.03;99204.25;2619704;54;19939;-68
2022/07/24 01:42:05;;;;;;;;;;;;;;;20.65;53.39;99199.69;2620128;54;19986;-68
2022/07/24 01:44:35;;;;;;;;;;;;;;;20.68;53.35;99209.94;2620047;54;19961;-67
2022/07/24 01:47:04;;;;;;;;;;;;;;;20.67;53.29;99202.13;2619421;47;19946;-66
2022/07/24 01:49:33;;;;;;;;;;;;;;;20.69;53.14;99191.94;2620104;39;20349;-68
2022/07/24 01:52:06;;;;;;;;;;;;;;;20.78;53.19;99206.59;2619511;46;19939;-67
2022/07/24 01:54:35;;;;;;;;;;;;;;;20.68;53.25;99201.88;2619422;54;19949;-64
2022/07/24 01:57:05;;;;;;;;;;;;;;;20.54;53.45;99203.31;2619861;54;19947;-64
2022/07/24 01:59:34;;;;;;;;;;;;;;;20.50;53.68;99205.69;2619262;54;19957;-65
2022/07/24 02:02:04;;;;;;;;;;;;;;;20.51;53.87;99199.25;2619711;46;19958;-64
2022/07/24 02:04:33;;;;;;;;;;;;;;;20.55;54.08;99199.56;2620081;54;20453;-65
2022/07/24 02:07:05;;;;;;;;;;;;;;;20.50;54.10;99200.31;2620490;54;19950;-67
2022/07/24 02:09:35;;;;;;;;;;;;;;;20.51;54.13;99198.44;2620208;39;20349;-66
2022/07/24 02:12:05;;;;;;;;;;;;;;;20.39;54.04;99205.75;2623216;49;19946;-66
2022/07/24 02:14:34;;;;;;;;;;;;;;;20.37;54.33;99194.44;2623165;54;19945;-66
2022/07/24 02:17:04;;;;;;;;;;;;;;;20.32;54.47;99205.09;2619947;54;19939;-67
2022/07/24 02:19:33;;;;;;;;;;;;;;;20.27;54.70;99203.97;2619967;47;19951;-67
2022/07/24 02:22:05;;;;;;;;;;;;;;;20.24;54.77;99199.09;2620527;54;19939;-66
2022/07/24 02:24:35;;;;;;;;;;;;;;;20.11;54.98;99202.09;2620437;54;19939;-67
2022/07/24 02:27:04;;;;;;;;;;;;;;;20.03;55.28;99205.19;2620796;54;19945;-66
2022/07/24 02:29:33;;;;;;;;;;;;;;;19.90;55.63;99200.97;2620537;54;20066;-67
2022/07/24 02:32:03;;;;;;;;;;;;;;;19.85;55.96;99214.31;2620688;54;19942;-66
2022/07/24 02:34:32;;;;;;;;;;;;;;;19.83;55.84;99204.88;2620860;54;20466;-66
2022/07/24 02:37:02;;;;;;;;;;;;;;;19.71;56.50;99207.63;2620362;54;19951;-67
2022/07/24 02:39:34;;;;;;;;;;;;;;;19.72;56.56;99210.06;2620972;39;20319;-66
2022/07/24 02:42:03;;;;;;;;;;;;;;;19.76;56.26;99213.09;2620523;54;20422;-66
2022/07/24 02:44:32;;;;;;;;;;;;;;;19.75;56.53;99214.94;2619998;54;20082;-66
2022/07/24 02:47:02;;;;;;;;;;;;;;;19.74;56.75;99218.69;2619950;39;20361;-67
2022/07/24 02:49:31;;;;;;;;;;;;;;;19.69;56.48;99215.09;2619371;54;19939;-66
2022/07/24 02:52:00;;;;;;;;;;;;;;;19.79;56.58;99226.81;2621157;39;20391;-66
2022/07/24 02:54:30;;;;;;;;;;;;;;;19.80;56.56;99216.91;2620820;54;19971;-67
2022/07/24 02:57:02;;;;;;;;;;;;;;;19.77;56.49;99220.88;2621433;54;20434;-66
2022/07/24 02:59:31;;;;;;;;;;;;;;;19.81;56.50;99223.91;2620128;54;19946;-66
2022/07/24 03:02:01;;;;;;;;;;;;;;;19.80;56.38;99216.91;2620509;54;19954;-65
2022/07/24 03:04:30;;;;;;;;;;;;;;;19.63;56.96;99219.56;2619253;51;20559;-67
2022/07/24 03:07:00;;;;;;;;;;;;;;;19.60;57.10;99217.34;2620088;54;19946;-66
2022/07/24 03:09:29;;;;;;;;;;;;;;;19.61;56.90;99216.31;2620636;54;19942;-68
2022/07/24 03:12:01;;;;;;;;;;;;;;;19.47;56.89;99218.47;2621370;54;19947;-65
2022/07/24 03:14:30;;;;;;;;;;;;;;;19.32;57.68;99215.50;2620637;54;19973;-67
2022/07/24 03:17:00;;;;;;;;;;;;;;;19.21;57.73;99216.34;2620906;54;19945;-65
2022/07/24 03:19:30;;;;;;;;;;;;;;;19.11;58.60;99211.59;2619816;54;19939;-65
2022/07/24 03:21:59;;;;;;;;;;;;;;;19.14;58.34;99219.16;2620148;54;19953;-66
2022/07/24 03:24:28;;;;;;;;;;;;;;;19.14;58.65;99221.81;2619999;54;19973;-65
2022/07/24 03:26:59;;;;;;;;;;;;;;;19.14;58.80;99213.78;2619587;54;20419;-65
2022/07/24 03:29:31;;;;;;;;;;;;;;;19.12;58.81;99215.09;2618808;54;20034;-65
2022/07/24 03:32:00;;;;;;;;;;;;;;;19.01;59.39;99219.44;2619955;54;20407;-65
2022/07/24 03:34:30;;;;;;;;;;;;;;;18.99;59.28;99216.19;2619393;47;19950;-65
2022/07/24 03:36:59;;;;;;;;;;;;;;;19.07;58.96;99215.00;2619775;54;19989;-65
2022/07/24 03:39:29;;;;;;;;;;;;;;;18.96;59.59;99209.44;2619892;54;20433;-66
2022/07/24 03:41:58;;;;;;;;;;;;;;;18.94;60.08;99211.53;2620268;54;19946;-66
2022/07/24 03:44:27;;;;;;;;;;;;;;;18.92;59.48;99215.50;2620155;54;19947;-67
2022/07/24 03:46:59;;;;;;;;;;;;;;;18.88;60.16;99217.84;2620353;54;19938;-65
2022/07/24 03:49:29;;;;;;;;;;;;;;;18.81;60.11;99217.13;2619158;54;19939;-65
2022/07/24 03:51:58;;;;;;;;;;;;;;;18.71;60.67;99217.75;2619166;39;20336;-65
2022/07/24 03:54:28;;;;;;;;;;;;;;;18.55;60.76;99218.44;2620253;39;20329;-65
2022/07/24 03:56:57;;;;;;;;;;;;;;;18.50;61.03;99219.13;2618555;54;19946;-65
2022/07/24 03:59:27;;;;;;;;;;;;;;;18.46;61.40;99223.34;2618960;54;19942;-66
2022/07/24 04:01:56;;;;;;;;;;;;;;;18.50;61.64;99224.50;2591733;47;19954;-65
2022/07/24 04:04:28;;;;;;;;;;;;;;;18.61;61.52;99224.72;2618749;54;19950;-65
2022/07/24 04:06:58;;;;;;;;;;;;;;;18.71;61.16;99222.28;2619380;39;20325;-65
2022/07/24 04:09:28;;;;;;;;;;;;;;;18.71;60.77;99220.44;2619270;54;19939;-63
2022/07/24 04:12:00;;;;;;;;;;;;;;;18.66;60.76;99222.97;2620071;39;20394;-65
2022/07/24 04:14:33;;;;;;;;;;;;;;;18.68;60.95;99226.22;2619473;39;20357;-68
2022/07/24 04:17:02;;;;;;;;;;;;;;;18.73;60.72;99230.88;2619247;54;19947;-64
2022/07/24 04:19:34;;;;;;;;;;;;;;;18.79;60.65;99224.59;2620282;54;19939;-65
2022/07/24 04:22:03;;;;;;;;;;;;;;;18.72;60.41;99226.59;2621133;54;19939;-66
2022/07/24 04:24:34;;;;;;;;;;;;;;;18.69;60.77;99224.34;2620848;54;20434;-66
2022/07/24 04:27:04;;;;;;;;;;;;;;;18.66;61.41;99224.84;2619720;54;20430;-66
2022/07/24 04:29:33;;;;;;;;;;;;;;;18.65;61.46;99217.84;2619068;54;19954;-67
2022/07/24 04:32:02;;;;;;;;;;;;;;;18.67;60.62;99227.28;2618390;47;19946;-68
2022/07/24 04:34:35;;;;;;;;;;;;;;;18.66;60.73;99222.16;2619253;54;19935;-67
2022/07/24 04:37:04;;;;;;;;;;;;;;;18.63;61.23;99226.13;2619102;54;19942;-69
2022/07/24 04:39:33;;;;;;;;;;;;;;;18.66;61.01;99232.88;2620759;54;19973;-68
2022/07/24 04:42:03;;;;;;;;;;;;;;;18.64;60.90;99226.91;2623024;54;19950;-66
2022/07/24 04:44:32;;;;;;;;;;;;;;;18.65;61.81;99226.69;2622158;54;19939;-66
2022/07/24 04:47:01;;;;;;;;;;;;;;;18.73;61.18;99228.22;2621228;39;20349;-66
2022/07/24 04:49:31;;;;;;;;;;;;;;;18.80;60.56;99227.03;2619801;54;19946;-66
2022/07/24 04:52:03;;;;;;;;;;;;;;;18.76;61.11;99223.22;2620445;31;20480;-66
2022/07/24 04:54:33;;;;;;;;;;;;;;;18.88;61.43;99230.41;2619958;54;19939;-65
2022/07/24 04:57:02;;;;;;;;;;;;;;;19.00;60.31;99228.53;2619493;47;19947;-67
2022/07/24 04:59:32;;;;;;;;;;;;;;;18.87;60.51;99234.16;2619398;54;19950;-65
2022/07/24 05:02:02;;;;;;;;;;;;;;;18.81;60.96;99241.25;2620369;54;19990;-66
2022/07/24 05:04:34;;;;;;;;;;;;;;;19.01;60.62;99244.34;2620390;54;19939;-65
2022/07/24 05:07:06;;;;;;;;;;;;;;;19.06;60.56;99235.59;2620396;54;19938;-66
2022/07/24 05:09:35;;;;;;;;;;;;;;;19.21;60.67;99243.94;2620366;47;20418;-67
2022/07/24 05:12:05;;;;;;;;;;;;;;;19.42;59.81;99245.16;2621258;54;20533;-65
2022/07/24 05:14:35;;;;;;;;;;;;;;;19.48;59.28;99248.75;2620840;54;19939;-66
2022/07/24 05:17:04;;;;;;;;;;;;;;;19.53;59.53;99246.97;2621366;39;20378;-67
2022/07/24 05:19:33;;;;;;;;;;;;;;;19.69;59.30;99237.38;2620952;54;19946;-67
2022/07/24 05:22:05;;;;;;;;;;;;;;;19.75;59.07;99239.06;2620501;54;19946;-67
2022/07/24 05:24:35;;;;;;;;;;;;;;;19.67;58.81;99236.78;2620728;54;20430;-67
2022/07/24 05:27:05;;;;;;;;;;;;;;;19.67;58.85;99244.03;2620068;47;19953;-66
2022/07/24 05:29:41;;;;;;;;;;;;;;;19.64;58.60;99239.97;2620646;54;20174;-67
2022/07/24 05:32:10;;;;;;;;;;;;;;;19.58;58.94;99237.41;2620603;39;20339;-67
2022/07/24 05:34:40;;;;;;;;;;;;;;;19.73;59.16;99235.84;2620366;54;19942;-67
2022/07/24 05:37:12;;;;;;;;;;;;;;;19.90;58.68;99243.09;2620833;54;19946;-67
2022/07/24 05:39:41;;;;;;;;;;;;;;;20.06;57.81;99236.94;2620259;54;20437;-67
2022/07/24 05:42:10;;;;;;;;;;;;;;;20.21;57.57;99236.38;2619949;54;19966;-66
2022/07/24 05:44:40;;;;;;;;;;;;;;;20.24;57.55;99235.84;2621144;39;20353;-67
2022/07/24 05:47:09;;;;;;;;;;;;;;;20.26;57.45;99241.81;2619460;54;19947;-67
2022/07/24 05:49:39;;;;;;;;;;;;;;;20.37;56.89;99240.06;2618567;54;19951;-66
2022/07/24 05:52:08;;;;;;;;;;;;;;;20.49;56.23;99238.13;2620540;54;19946;-66
2022/07/24 05:54:40;;;;;;;;;;;;;;;20.48;56.54;99240.00;2620233;54;20448;-66
2022/07/24 05:57:10;;;;;;;;;;;;;;;20.28;56.44;99237.81;2620409;54;19947;-68
2022/07/24 05:59:39;;;;;;;;;;;;;;;20.41;56.18;99247.41;2620435;54;19947;-66
2022/07/24 06:02:09;;;;;;;;;;;;;;;20.41;56.38;99249.25;2620509;54;19946;-66
2022/07/24 06:04:41;;;;;;;;;;;;;;;20.36;56.55;99244.63;2620948;54;19939;-66
2022/07/24 06:07:11;;;;;;;;;;;;;;;20.60;56.21;99245.28;2621805;39;20125;-66
2022/07/24 06:09:43;;;;;;;;;;;;;;;20.59;56.44;99253.59;2621166;54;19939;-65
2022/07/24 06:12:12;;;;;;;;;;;;;;;20.82;55.91;99249.88;2621150;54;20440;-66
2022/07/24 06:14:45;;;;;;;;;;;;;;;20.96;55.27;99254.63;2620059;54;20444;-67
2022/07/24 06:17:14;;;;;;;;;;;;;;;21.09;55.08;99244.59;2618538;54;19951;-66
2022/07/24 06:19:43;;;;;;;;;;;;;;;21.16;54.47;99251.41;2619112;54;19954;-66
2022/07/24 06:22:13;;;;;;;;;;;;;;;21.34;54.56;99244.91;2619142;54;19961;-66
2022/07/24 06:24:45;;;;;;;;;;;;;;;21.50;54.64;99244.00;2619593;54;19958;-66
2022/07/24 06:27:14;;;;;;;;;;;;;;;21.62;54.25;99237.66;2619369;54;20050;-66
2022/07/24 06:29:44;;;;;;;;;;;;;;;21.77;53.94;99240.50;2618611;54;19945;-67
2022/07/24 06:32:13;;;;;;;;;;;;;;;21.96;53.10;99230.16;2618757;39;20323;-66
2022/07/24 06:34:42;;;;;;;;;;;;;;;22.09;52.99;99228.94;2619123;54;19949;-66
2022/07/24 06:37:12;;;;;;;;;;;;;;;22.27;52.77;99233.13;2619064;39;20318;-66
2022/07/24 06:39:41;;;;;;;;;;;;;;;22.37;52.25;99233.19;2618128;54;19942;-66
2022/07/24 06:42:13;;;;;;;;;;;;;;;22.44;52.26;99236.47;2619051;54;19973;-67
2022/07/24 06:44:43;;;;;;;;;;;;;;;22.50;51.72;99236.25;2619209;54;19954;-67
2022/07/24 06:47:12;;;;;;;;;;;;;;;22.53;51.36;99229.53;2619074;39;20242;-66
2022/07/24 06:49:41;;;;;;;;;;;;;;;22.59;51.69;99228.50;2618987;54;19982;-66
2022/07/24 06:52:11;;;;;;;;;;;;;;;22.59;50.31;99233.88;2618486;47;19947;-67
2022/07/24 06:54:41;;;;;;;;;;;;;;;22.52;50.28;99227.91;2619711;54;19958;-66
2022/07/24 06:57:13;;;;;;;;;;;;;;;22.43;49.48;99227.59;2620295;54;19953;-65
2022/07/24 06:59:43;;;;;;;;;;;;;;;22.37;49.61;99222.41;2619895;54;19958;-66
2022/07/24 07:02:12;;;;;;;;;;;;;;;22.41;50.21;99226.22;2621721;54;19945;-65
2022/07/24 07:04:42;;;;;;;;;;;;;;;22.59;49.49;99222.31;2621971;54;19993;-66
2022/07/24 07:07:11;;;;;;;;;;;;;;;22.46;49.29;99224.38;2619764;47;20019;-64
2022/07/24 07:09:41;;;;;;;;;;;;;;;22.50;49.18;99224.69;2621420;54;20461;-65
2022/07/24 07:12:11;;;;;;;;;;;;;;;22.60;49.63;99219.34;2623331;54;19946;-65
2022/07/24 07:14:43;;;;;;;;;;;;;;;22.53;49.33;99221.44;2623559;54;19954;-66
2022/07/24 07:17:12;;;;;;;;;;;;;;;22.69;49.05;99222.34;2623397;54;19981;-66
2022/07/24 07:19:42;;;;;;;;;;;;;;;22.82;48.69;99221.91;2623264;46;19947;-66
2022/07/24 07:22:12;;;;;;;;;;;;;;;22.95;48.52;99226.81;2623714;54;19951;-65
2022/07/24 07:24:41;;;;;;;;;;;;;;;23.02;47.78;99223.88;2623703;54;19938;-67
2022/07/24 07:27:14;;;;;;;;;;;;;;;23.06;47.70;99227.66;2623603;54;19946;-67
2022/07/24 07:29:46;;;;;;;;;;;;;;;23.11;47.13;99226.91;2623827;54;19946;-67
2022/07/24 07:32:16;;;;;;;;;;;;;;;23.21;47.81;99226.91;2623570;54;19953;-67
2022/07/24 07:34:45;;;;;;;;;;;;;;;23.38;47.16;99224.81;2622308;54;19945;-67
2022/07/24 07:37:15;;;;;;;;;;;;;;;23.59;47.00;99222.16;2621798;54;19939;-68
2022/07/24 07:39:44;;;;;;;;;;;;;;;23.70;46.02;99218.41;2620985;54;19958;-67
2022/07/24 07:42:13;;;;;;;;;;;;;;;23.73;46.50;99217.88;2621788;54;19946;-68
2022/07/24 07:44:43;;;;;;;;;;;;;;;23.85;46.31;99214.94;2621973;54;19958;-69
2022/07/24 07:47:15;;;;;;;;;;;;;;;23.89;45.75;99211.41;2621891;54;19953;-67
2022/07/24 07:49:44;;;;;;;;;;;;;;;24.06;45.11;99216.53;2621835;54;19954;-66
2022/07/24 07:52:14;;;;;;;;;;;;;;;24.08;44.88;99211.66;2621862;54;19939;-68
2022/07/24 07:54:45;;;;;;;;;;;;;;;24.15;44.80;99209.50;2621805;54;19950;-67
2022/07/24 07:57:14;;;;;;;;;;;;;;;24.24;45.48;99209.75;2619459;46;19942;-68
2022/07/24 07:59:43;;;;;;;;;;;;;;;24.44;45.11;99211.66;2618414;54;19946;-68
2022/07/24 08:02:15;;;;;;;;;;;;;;;24.44;44.39;99209.75;2619008;54;19947;-68
2022/07/24 08:04:45;;;;;;;;;;;;;;;24.55;44.59;99215.97;2618784;54;19943;-68
2022/07/24 08:07:14;;;;;;;;;;;;;;;24.67;44.47;99207.56;2618569;47;19939;-68
2022/07/24 08:09:45;;;;;;;;;;;;;;;24.73;43.73;99208.34;2619133;39;20325;-68
2022/07/24 08:12:15;;;;;;;;;;;;;;;24.79;43.60;99212.66;2619253;54;19946;-67
2022/07/24 08:14:44;;;;;;;;;;;;;;;24.88;43.69;99214.50;2618547;54;19990;-68
2022/07/24 08:17:17;;;;;;;;;;;;;;;24.83;42.91;99217.22;2618362;54;19946;-68
2022/07/24 08:19:47;;;;;;;;;;;;;;;24.76;43.16;99210.50;2617937;54;19938;-67
2022/07/24 08:22:16;;;;;;;;;;;;;;;24.93;43.11;99219.88;2618565;54;19943;-66
2022/07/24 08:24:45;;;;;;;;;;;;;;;24.92;43.32;99212.88;2618746;54;19958;-67
2022/07/24 08:27:15;;;;;;;;;;;;;;;25.09;43.20;99204.44;2618554;54;19939;-66
2022/07/24 08:29:44;;;;;;;;;;;;;;;25.21;43.08;99214.94;2618396;54;19942;-66
2022/07/24 08:32:16;;;;;;;;;;;;;;;25.33;42.71;99195.66;2618892;54;19954;-66
2022/07/24 08:34:46;;;;;;;;;;;;;;;25.44;43.21;99198.03;2619179;54;19957;-67
2022/07/24 08:37:15;;;;;;;;;;;;;;;25.44;42.43;99198.03;2619732;39;20340;-67
2022/07/24 08:39:44;;;;;;;;;;;;;;;25.45;42.40;99196.13;2619022;54;19982;-67
2022/07/24 08:42:14;;;;;;;;;;;;;;;25.51;42.26;99200.41;2619220;54;19946;-67
2022/07/24 08:44:43;;;;;;;;;;;;;;;25.62;41.99;99198.44;2619368;54;19939;-67
2022/07/24 08:47:13;;;;;;;;;;;;;;;25.76;41.92;99188.59;2619120;54;19946;-67
2022/07/24 08:49:46;;;;;;;;;;;;;;;25.85;41.22;99194.25;2618908;54;20441;-67
2022/07/24 08:52:18;;;;;;;;;;;;;;;26.00;41.20;99185.16;2619126;54;19961;-67
2022/07/24 08:54:47;;;;;;;;;;;;;;;26.11;41.15;99187.50;2619152;54;19962;-66
2022/07/24 08:57:17;;;;;;;;;;;;;;;26.24;40.59;99190.63;2618775;54;19950;-66
2022/07/24 08:59:46;;;;;;;;;;;;;;;26.27;40.87;99190.88;2619343;39;20369;-67
2022/07/24 09:02:16;;;;;;;;;;;;;;;26.28;40.62;99184.34;2619251;39;20326;-65
2022/07/24 09:04:49;;;;;;;;;;;;;;;26.40;40.88;99189.38;2618578;47;19967;-66
2022/07/24 09:07:22;;;;;;;;;;;;;;;26.48;40.05;99179.84;2619047;54;19954;-66
2022/07/24 09:10:00;;;;;;;;;;;;;;;26.55;39.86;99183.84;2618746;54;20415;-66
2022/07/24 09:12:33;;;;;;;;;;;;;;;26.58;39.61;99185.97;2619333;54;20555;-65
2022/07/24 09:15:03;;;;;;;;;;;;;;;26.72;39.35;99177.13;2618000;54;19938;-65
2022/07/24 09:17:32;;;;;;;;;;;;;;;26.80;39.57;99177.28;2617940;54;19951;-64
2022/07/24 09:20:07;;;;;;;;;;;;;;;26.93;38.54;99167.63;2617264;47;19939;-65
2022/07/24 09:22:38;;;;;;;;;;;;;;;26.87;39.12;99174.25;2617941;54;19946;-65
2022/07/24 09:25:15;;;;;;;;;;;;;;;26.91;39.02;99169.84;2618082;54;19954;-65
2022/07/24 09:27:48;;;;;;;;;;;;;;;27.19;37.66;99168.16;2617961;54;19939;-65
2022/07/24 09:30:26;;;;;;;;;;;;;;;27.31;36.85;99173.09;2617761;54;19950;-65
2022/07/24 09:32:56;;;;;;;;;;;;;;;27.37;37.49;99164.59;2617744;54;19947;-65
2022/07/24 09:35:32;;;;;;;;;;;;;;;27.49;36.60;99168.78;2617797;54;19946;-65
2022/07/24 09:38:01;;;;;;;;;;;;;;;27.37;36.68;99159.19;2617892;54;19946;-67
2022/07/24 09:40:32;;;;;;;;;;;;;;;27.48;37.32;99164.47;2617729;54;19938;-65
2022/07/24 09:43:15;;;;;;;;;;;;;;;27.66;37.00;99160.91;2617964;54;19946;-65
2022/07/24 09:45:56;;;;;;;;;;;;;;;27.82;36.59;99166.94;2616877;54;20434;-64
2022/07/24 09:48:27;;;;;;;;;;;;;;;27.96;36.26;99161.53;2617838;54;20418;-64
2022/07/24 09:51:00;;;;;;;;;;;;;;;27.98;35.36;99165.56;2618083;39;20326;-65
2022/07/24 09:53:30;;;;;;;;;;;;;;;27.93;35.32;99167.56;2617316;47;19942;-64
2022/07/24 09:56:01;;;;;;;;;;;;;;;28.03;35.54;99167.38;2618023;54;19946;-66
2022/07/24 09:58:31;;;;;;;;;;;;;;;28.03;35.19;99160.03;2618622;54;19954;-65
2022/07/24 10:01:03;;;;;;;;;;;;;;;27.97;35.28;99161.25;2617775;54;20425;-64
2022/07/24 10:03:33;;;;;;;;;;;;;;;27.96;35.10;99156.88;2617996;47;19965;-65
2022/07/24 10:06:07;;;;;;;;;;;;;;;28.17;34.74;99157.34;2617953;46;19942;-65
2022/07/24 10:08:38;;;;;;;;;;;;;;;28.23;35.18;99152.63;2618527;54;19985;-64
2022/07/24 10:11:08;;;;;;;;;;;;;;;28.35;33.83;99142.06;2617931;54;19947;-64
2022/07/24 10:13:38;;;;;;;;;;;;;;;28.37;33.09;99139.84;2618093;54;20437;-65
2022/07/24 10:16:22;;;;;;;;;;;;;;;28.46;32.39;99132.63;2618356;54;19946;-68
2022/07/24 10:18:53;;;;;;;;;;;;;;;28.24;33.26;99136.00;2618613;54;19939;-68
2022/07/24 10:21:26;;;;;;;;;;;;;;;28.32;33.71;99140.75;2617988;47;19947;-68
2022/07/24 10:24:13;;;;;;;;;;;;;;;28.34;33.58;99132.31;2618927;54;19953;-69
2022/07/24 10:26:43;;;;;;;;;;;;;;;28.53;33.55;99134.94;2618672;54;19953;-67
2022/07/24 10:29:14;;;;;;;;;;;;;;;28.62;33.12;99128.50;2622319;47;19946;-69
2022/07/24 10:31:44;;;;;;;;;;;;;;;28.69;32.73;99127.25;2622100;54;19954;-67
2022/07/24 10:34:20;;;;;;;;;;;;;;;28.71;32.40;99122.34;2618505;54;20451;-67
2022/07/24 10:36:57;;;;;;;;;;;;;;;28.77;32.02;99123.81;2618515;54;19953;-67
2022/07/24 10:39:31;;;;;;;;;;;;;;;28.77;32.44;99121.09;2617587;47;19946;-67
2022/07/24 10:42:05;;;;;;;;;;;;;;;28.95;31.42;99125.63;2618418;54;20288;-67
2022/07/24 10:44:36;;;;;;;;;;;;;;;28.89;31.35;99110.50;2618528;54;19939;-67
2022/07/24 10:47:07;;;;;;;;;;;;;;;29.00;31.70;99117.38;2618876;39;20335;-68
2022/07/24 10:49:44;;;;;;;;;;;;;;;29.08;31.68;99115.84;2618286;54;19938;-68
2022/07/24 10:52:24;;;;;;;;;;;;;;;29.11;30.86;99107.88;2618472;54;19946;-67
2022/07/24 10:55:08;;;;;;;;;;;;;;;28.92;30.45;99109.09;2618445;54;19954;-68
2022/07/24 10:57:50;;;;;;;;;;;;;;;29.05;30.79;99102.84;2618549;54;19979;-66
2022/07/24 11:00:26;;;;;;;;;;;;;;;29.14;31.35;99098.25;2618226;54;19947;-67
2022/07/24 11:03:01;;;;;;;;;;;;;;;29.22;31.20;99097.53;2618486;54;19949;-67
2022/07/24 11:05:34;;;;;;;;;;;;;;;29.24;30.98;99091.78;2618417;54;19942;-67
2022/07/24 11:08:33;;;;;;;;;;;;;;;29.32;31.13;99088.31;2618306;54;20434;-67
2022/07/24 11:11:13;;;;;;;;;;;;;;;29.47;31.04;99087.94;2618315;54;19938;-67
2022/07/24 11:13:46;;;;;;;;;;;;;;;29.46;30.71;99090.97;2617633;47;19957;-68
2022/07/24 11:16:21;;;;;;;;;;;;;;;29.38;30.84;99078.91;2618295;54;19954;-67
2022/07/24 11:19:06;;;;;;;;;;;;;;;29.46;30.69;99075.44;2618140;54;19945;-67
2022/07/24 11:21:38;;;;;;;;;;;;;;;29.58;30.71;99067.53;2618084;54;19970;-68
2022/07/24 11:24:30;;;;;;;;;;;;;;;29.69;30.06;99067.28;2618227;54;19939;-66
2022/07/24 11:27:06;;;;;;;;;;;;;;;29.71;30.37;99062.31;2618352;54;19939;-66
2022/07/24 11:29:37;;;;;;;;;;;;;;;29.77;30.82;99059.16;2618084;54;19939;-67
2022/07/24 11:32:11;;;;;;;;;;;;;;;29.83;30.82;99057.09;2618387;54;19947;-65
2022/07/24 11:34:46;;;;;;;;;;;;;;;29.95;30.96;99053.78;2618330;54;19941;-66
2022/07/24 11:37:15;;;;;;;;;;;;;;;30.08;30.43;99050.13;2618601;54;19954;-66
2022/07/24 11:39:46;;;;;;;;;;;;;;;30.16;30.26;99043.94;2617958;54;20030;-67
2022/07/24 11:42:19;;;;;;;;;;;;;;;30.22;30.01;99050.06;2618422;54;19945;-67
2022/07/24 11:44:49;;;;;;;;;;;;;;;30.15;30.20;99042.34;2618147;54;19938;-66
2022/07/24 11:47:20;;;;;;;;;;;;;;;30.20;30.33;99042.19;2618928;39;20360;-67
2022/07/24 11:49:52;;;;;;;;;;;;;;;30.29;30.67;99042.19;2618057;54;20430;-67
2022/07/24 11:52:22;;;;;;;;;;;;;;;30.64;29.93;99042.28;2618585;54;19947;-67
2022/07/24 11:54:53;;;;;;;;;;;;;;;30.57;29.82;99038.09;2618487;54;19938;-67
2022/07/24 11:57:28;;;;;;;;;;;;;;;30.51;30.17;99030.38;2618116;54;19947;-65
2022/07/24 12:00:19;;;;;;;;;;;;;;;30.32;29.93;99030.66;2618619;39;20009;-68
2022/07/24 12:02:49;;;;;;;;;;;;;;;30.41;29.54;99020.56;2618175;54;19939;-67
2022/07/24 12:05:26;;;;;;;;;;;;;;;30.40;29.11;99020.91;2618698;39;20315;-67
2022/07/24 12:07:56;;;;;;;;;;;;;;;30.57;29.72;99027.16;2618262;54;19947;-67
2022/07/24 12:10:26;;;;;;;;;;;;;;;30.75;29.04;99017.13;2617919;54;19946;-67
2022/07/24 12:12:58;;;;;;;;;;;;;;;30.62;28.94;99009.88;2618596;54;19958;-67
2022/07/24 12:15:29;;;;;;;;;;;;;;;30.64;28.98;99010.34;2618512;54;20045;-67
2022/07/24 12:18:00;;;;;;;;;;;;;;;30.76;28.78;99007.00;2618275;54;19969;-67
2022/07/24 12:20:30;;;;;;;;;;;;;;;30.79;28.32;99001.72;2618221;54;19945;-67
2022/07/24 12:23:03;;;;;;;;;;;;;;;30.75;28.37;98995.28;2617854;54;19939;-67
2022/07/24 12:25:32;;;;;;;;;;;;;;;30.79;28.30;98992.72;2618412;54;19946;-67
2022/07/24 12:28:08;;;;;;;;;;;;;;;31.04;27.99;98991.09;2618005;54;19947;-68
2022/07/24 12:30:39;;;;;;;;;;;;;;;31.22;27.73;98989.13;2617841;54;19946;-67
2022/07/24 12:33:10;;;;;;;;;;;;;;;31.23;27.56;98990.72;2617944;54;19939;-67
2022/07/24 12:35:55;;;;;;;;;;;;;;;31.25;27.46;98977.56;2617995;54;19935;-67
2022/07/24 12:38:28;;;;;;;;;;;;;;;31.38;27.34;98973.06;2617939;54;20453;-67
2022/07/24 12:41:08;;;;;;;;;;;;;;;31.34;27.16;98970.16;2617801;54;19946;-67
2022/07/24 12:43:51;;;;;;;;;;;;;;;31.44;27.06;98975.28;2618468;39;20338;-68
2022/07/24 12:46:21;;;;;;;;;;;;;;;31.31;26.79;98965.34;2618649;54;19958;-68
2022/07/24 12:49:02;;;;;;;;;;;;;;;31.35;27.21;98963.56;2618157;54;19989;-68
2022/07/24 12:51:46;;;;;;;;;;;;;;;31.56;27.20;98959.00;2618112;54;20007;-67
2022/07/24 16:17:44;;;;;;;;;;;;;;;33.61;21.67;98696.91;2622361;54;21343;-67
2022/07/24 16:20:14;;;;;;;;;;;;;;;33.77;21.39;98694.22;2622733;54;19934;-69
2022/07/24 16:22:44;;;;;;;;;;;;;;;33.79;21.59;98700.13;2622938;47;19954;-67
2022/07/24 16:25:13;;;;;;;;;;;;;;;33.90;21.80;98687.53;2618613;39;20365;-66
2022/07/24 16:27:43;;;;;;;;;;;;;;;34.10;21.39;98690.44;2618323;54;19946;-70
2022/07/24 16:30:12;;;;;;;;;;;;;;;34.18;21.26;98689.47;2617594;54;19947;-69
2022/07/24 16:32:44;;;;;;;;;;;;;;;34.35;20.95;98680.09;2618222;54;19939;-69